Wetterdaten für den Flughafen Lübeck Blankensee


ADDS - METARS form results Aviation Digital Data Service (ADDS) Output produced by METARs form (0301 UTC 24 October 2021)
found at http://www.aviationweather.gov/metar/data/
 
EDHL 240250Z AUTO 00000KT 9999 // OVC050/// 04/04 Q1028
TAF EDHL 231700Z 2318/2321 VRB03KT 9999 SCT040

Nord: Hamburg, Lübeck
Ost: Schwerin, Rostock
Süd: Hannover
West: Bremen, Nordhloz

 

Copyright © 2016 Flugschule Hohensee